CDT,Max TemperatureF,Mean TemperatureF,Min TemperatureF,Max Dew PointF,MeanDew PointF,Min DewpointF,Max Humidity, Mean Humidity, Min Humidity, Max Sea Level PressureIn, Mean Sea Level PressureIn, Min Sea Level PressureIn, Max VisibilityMiles, Mean VisibilityMiles, Min VisibilityMiles, Max Wind SpeedMPH, Mean Wind SpeedMPH, Max Gust SpeedMPH,PrecipitationIn, CloudCover, Events, WindDirDegrees
2013-7-1,82,69,56,57,52,50,86,61,35,30.14,30.11,30.09,10,9,7,20,7,29,0.00,0,,18
2013-7-2,84,70,55,58,53,44,93,60,26,30.13,30.08,30.02,10,10,8,18,5,23,0.00,0,,359
2013-7-3,82,69,55,60,57,54,100,70,40,30.06,30.03,29.97,10,7,0,12,5,16,0.00,0,Fog,133
2013-7-4,86,72,58,61,58,57,97,67,37,30.02,29.98,29.94,10,9,6,17,7,23,0.00,0,,171
2013-7-5,88,74,59,62,60,57,90,65,40,29.98,29.93,29.89,10,10,8,21,9,26,0.00,0,,162
2013-7-6,91,78,65,66,63,61,81,60,38,29.94,29.90,29.84,10,10,9,21,10,26,0.00,0,,162
2013-7-7,92,80,68,71,67,63,84,63,41,29.90,29.87,29.85,10,9,7,23,9,30,0.00,2,Thunderstorm,191
2013-7-8,89,81,73,74,72,69,93,75,56,29.95,29.92,29.88,10,8,6,13,6,16,T,0,,209
2013-7-9,94,83,72,75,73,70,100,73,46,29.98,29.90,29.85,10,8,2,15,6,21,0.11,3,Rain-Thunderstorm,252
2013-7-10,83,73,62,70,59,52,87,61,34,30.06,30.01,29.92,10,10,7,21,9,26,0.00,0,,355
2013-7-11,84,71,58,59,57,55,93,67,40,30.12,30.07,30.02,10,9,5,14,6,18,0.00,0,,135
2013-7-12,86,73,60,62,60,57,90,67,44,30.07,30.03,29.98,10,10,7,20,10,26,0.00,0,,151
2013-7-13,78,71,63,65,60,55,84,72,60,30.06,30.03,30.00,10,10,10,18,9,22,0.00,1,,142
2013-7-14,86,74,61,65,62,60,100,71,42,30.18,30.11,30.07,10,10,7,16,5,22,0.00,0,,133
2013-7-15,89,76,63,71,67,61,93,73,53,30.23,30.19,30.14,10,9,6,15,5,20,0.00,2,,133
2013-7-16,92,82,71,72,69,66,93,69,44,30.25,30.21,30.18,10,10,6,12,5,16,0.00,3,,169
2013-7-17,95,82,69,71,68,65,97,67,36,30.28,30.22,30.15,10,10,6,14,5,17,0.00,1,,201
2013-7-18,95,84,73,69,67,64,87,63,39,30.16,30.03,29.90,10,10,9,22,11,28,0.00,0,,215
2013-7-19,95,82,68,69,64,58,74,55,36,29.91,29.85,29.81,10,10,10,18,9,22,0.00,1,,281
2013-7-20,88,73,57,62,58,53,90,61,31,29.96,29.91,29.86,10,10,7,10,2,26,0.00,0,,227
2013-7-21,82,72,62,68,64,59,93,71,49,29.91,29.86,29.80,10,10,8,18,6,24,0.06,2,Thunderstorm,144
2013-7-22,93,78,63,71,66,62,100,72,44,29.85,29.78,29.68,10,7,0,39,9,49,1.05,3,Fog-Rain-Thunderstorm,211
2013-7-23,78,68,57,66,58,56,90,69,48,29.99,29.92,29.79,10,10,10,17,7,22,0.00,0,,16
2013-7-24,80,67,54,60,57,54,93,68,42,30.07,30.03,29.99,10,10,10,12,3,15,0.00,2,,86
2013-7-25,85,71,57,66,61,55,97,71,44,30.05,30.01,29.93,10,9,2,22,6,26,0.02,1,,207
2013-7-26,77,68,59,66,59,50,100,72,44,30.05,29.99,29.93,10,10,6,25,12,37,0.00,4,Rain,315
2013-7-27,71,62,52,51,46,41,89,63,36,30.09,30.04,29.99,10,10,10,22,11,31,0.00,2,,326
2013-7-28,76,63,49,51,47,44,86,62,38,30.07,30.02,29.99,10,10,10,18,8,23,0.00,0,,321
2013-7-29,75,61,47,59,51,46,100,75,49,30.13,30.10,30.06,10,7,0,13,5,17,0.00,2,Fog,141
2013-7-30,70,67,63,65,63,58,100,87,73,30.10,30.07,30.04,10,5,1,10,4,13,0.21,8,Rain,101
2013-7-31,83,72,60,66,63,60,100,74,47,30.12,30.08,30.01,10,4,0,14,5,18,0.00,5,Fog,318